Time;durP1;ratioP1;P1;durP2;ratioP2;P2;SDS_P1;SDS_P2;PMS_P1;PMS_P2;Temp;Humidity;BMP_temperature;BMP_pressure;BME280_temperature;BME280_humidity;BME280_pressure;Samples;Min_cycle;Max_cycle;Signal;HPM_P1;HPM_P2
2023/01/26 00:01:21;;;;;;;11.20;5.43;;;;;;;17.77;47.65;100986.97;5064763;28;20210;-58
2023/01/26 00:03:47;;;;;;;11.93;5.30;;;;;;;17.80;47.48;100987.09;5069817;28;20187;-58
2023/01/26 00:06:14;;;;;;;10.90;5.70;;;;;;;17.79;47.54;100985.44;5067226;28;20478;-58
2023/01/26 00:08:41;;;;;;;18.87;7.00;;;;;;;17.76;47.59;100971.84;5067909;28;20183;-59
2023/01/26 00:11:07;;;;;;;11.73;6.30;;;;;;;17.75;47.94;100972.22;5061855;28;20445;-59
2023/01/26 00:13:33;;;;;;;13.50;6.40;;;;;;;17.74;47.73;100974.25;5068267;28;20481;-59
2023/01/26 00:15:59;;;;;;;10.90;5.10;;;;;;;17.73;48.07;100972.59;5062440;28;20439;-59
2023/01/26 00:18:24;;;;;;;14.10;6.30;;;;;;;17.74;47.98;100964.84;5069122;28;20168;-59
2023/01/26 00:20:59;;;;;;;14.50;6.30;;;;;;;17.83;48.28;100972.09;5065288;28;20282;-59
2023/01/26 00:23:27;;;;;;;18.83;5.87;;;;;;;17.87;47.66;100963.63;5060727;28;20206;-59
2023/01/26 00:25:52;;;;;;;8.60;5.07;;;;;;;17.93;48.18;100965.03;5067465;28;20449;-58
2023/01/26 00:28:18;;;;;;;11.70;5.13;;;;;;;17.94;48.18;100958.97;5066166;28;20844;-58
2023/01/26 00:30:43;;;;;;;13.37;6.30;;;;;;;17.94;48.05;100964.69;5064531;28;20190;-59
2023/01/26 00:33:10;;;;;;;11.47;5.37;;;;;;;17.81;48.33;100954.47;5065101;28;20180;-59
2023/01/26 00:35:35;;;;;;;13.10;5.97;;;;;;;17.80;48.58;100955.66;5067861;28;20418;-59
2023/01/26 00:38:01;;;;;;;16.13;6.40;;;;;;;17.87;48.25;100955.06;5067905;28;20224;-58
2023/01/26 00:40:26;;;;;;;10.03;4.90;;;;;;;17.86;48.82;100947.69;5062026;28;20179;-59
2023/01/26 00:42:53;;;;;;;16.70;5.90;;;;;;;17.79;48.68;100948.28;5067630;28;20174;-58
2023/01/26 00:45:21;;;;;;;11.23;5.27;;;;;;;17.84;48.77;100950.91;5067887;28;20213;-59
2023/01/26 00:47:46;;;;;;;11.67;5.50;;;;;;;17.79;48.99;100942.59;5066531;28;20516;-58
2023/01/26 00:50:12;;;;;;;9.53;5.27;;;;;;;17.82;48.62;100944.72;5068889;28;20417;-58
2023/01/26 00:52:37;;;;;;;11.80;5.20;;;;;;;17.80;49.00;100934.84;5064426;28;20277;-58
2023/01/26 00:55:03;;;;;;;11.90;5.37;;;;;;;17.76;49.28;100931.88;5069237;28;20171;-58
2023/01/26 00:57:29;;;;;;;12.43;5.60;;;;;;;17.74;49.37;100933.41;5068871;28;20182;-58
2023/01/26 00:59:54;;;;;;;13.33;6.00;;;;;;;17.75;49.26;100926.53;5070404;28;20640;-58
2023/01/26 01:02:19;;;;;;;9.80;5.27;;;;;;;17.79;49.06;100927.47;5058249;28;20274;-59
2023/01/26 01:04:45;;;;;;;8.50;4.40;;;;;;;17.75;49.51;100930.22;5085430;28;20185;-58
2023/01/26 01:07:10;;;;;;;9.83;4.97;;;;;;;17.70;49.50;100919.03;5057853;28;20188;-58
2023/01/26 01:09:36;;;;;;;11.33;4.50;;;;;;;17.78;49.52;100926.66;5052186;28;20496;-58
2023/01/26 01:12:01;;;;;;;14.50;4.90;;;;;;;17.77;49.37;100927.84;5051749;28;20235;-58
2023/01/26 01:14:27;;;;;;;11.67;5.57;;;;;;;17.77;49.43;100919.28;5068748;28;20194;-59
2023/01/26 01:16:52;;;;;;;10.10;5.07;;;;;;;17.72;50.03;100919.53;5092521;28;20166;-58
2023/01/26 01:19:17;;;;;;;7.03;4.50;;;;;;;17.71;50.02;100914.97;5087829;28;20618;-59
2023/01/26 01:21:43;;;;;;;10.90;4.50;;;;;;;17.69;49.85;100920.22;5093043;28;20162;-60
2023/01/26 01:24:09;;;;;;;11.20;4.60;;;;;;;17.72;49.69;100910.13;5071400;28;20583;-59
2023/01/26 01:26:34;;;;;;;8.50;5.00;;;;;;;17.69;49.80;100905.13;5058646;28;20187;-58
2023/01/26 01:28:59;;;;;;;11.87;5.53;;;;;;;17.73;50.11;100901.19;5071813;28;20604;-59
2023/01/26 01:31:25;;;;;;;14.43;5.23;;;;;;;17.70;50.23;100903.94;5074060;28;20229;-58
2023/01/26 01:33:54;;;;;;;15.40;5.00;;;;;;;17.69;50.31;100902.25;5069412;28;20213;-58
2023/01/26 01:36:20;;;;;;;9.13;4.30;;;;;;;17.76;50.28;100897.59;5061301;28;20272;-59
2023/01/26 01:38:45;;;;;;;7.27;4.20;;;;;;;17.73;49.81;100895.47;5072456;28;20896;-59
2023/01/26 01:41:11;;;;;;;8.83;4.80;;;;;;;17.73;50.16;100906.06;5050852;28;20202;-59
2023/01/26 01:43:36;;;;;;;9.17;4.20;;;;;;;17.73;50.29;100895.47;5072424;28;20629;-58
2023/01/26 01:46:25;;;;;;;9.63;5.03;;;;;;;17.74;50.16;100899.16;5071637;28;20222;-59
2023/01/26 01:48:59;;;;;;;8.60;4.57;;;;;;;17.75;50.10;100901.66;5040523;28;20184;-59
2023/01/26 01:51:26;;;;;;;11.23;4.50;;;;;;;17.78;50.29;100900.94;5051480;28;20401;-58
2023/01/26 01:53:51;;;;;;;10.50;4.47;;;;;;;17.71;50.24;100897.03;5068954;28;20427;-58
2023/01/26 01:56:20;;;;;;;7.57;4.10;;;;;;;17.73;50.66;100898.34;5070983;28;21175;-59
2023/01/26 01:58:46;;;;;;;11.67;4.90;;;;;;;17.70;50.18;100893.34;5064030;28;20187;-58
2023/01/26 02:01:11;;;;;;;9.17;5.77;;;;;;;17.73;50.39;100891.78;5035833;28;20450;-59
2023/01/26 02:03:37;;;;;;;13.33;4.80;;;;;;;17.76;50.27;100897.59;5048145;28;20182;-59
2023/01/26 02:06:09;;;;;;;11.63;4.97;;;;;;;17.73;50.21;100895.47;5073959;28;20186;-58
2023/01/26 02:08:40;;;;;;;12.70;4.10;;;;;;;17.75;50.36;100893.09;5058158;28;20190;-58
2023/01/26 02:11:11;;;;;;;9.57;4.67;;;;;;;17.70;50.08;100884.78;5032707;28;20446;-59
2023/01/26 02:14:01;;;;;;;8.10;4.00;;;;;;;17.69;50.34;100885.97;5026465;28;20467;-59
2023/01/26 02:16:27;;;;;;;10.70;4.60;;;;;;;17.67;50.76;100885.50;5039960;28;20858;-58
2023/01/26 02:18:52;;;;;;;9.60;4.43;;;;;;;17.65;50.90;100879.31;5051828;28;20410;-59
2023/01/26 02:21:19;;;;;;;5.97;3.70;;;;;;;17.66;50.52;100880.97;5034241;28;20180;-59
2023/01/26 02:24:09;;;;;;;9.20;4.80;;;;;;;17.60;50.75;100882.41;5047655;28;20180;-58
2023/01/26 02:26:35;;;;;;;8.47;4.50;;;;;;;17.63;50.63;100880.88;5054166;28;20974;-58
2023/01/26 02:29:00;;;;;;;11.93;5.47;;;;;;;17.63;50.88;100876.00;5017464;28;20426;-58
2023/01/26 02:31:26;;;;;;;8.17;4.53;;;;;;;17.64;50.68;100873.97;5053324;28;20187;-59
2023/01/26 02:33:51;;;;;;;12.20;4.90;;;;;;;17.67;50.50;100873.25;5051809;28;20185;-58
2023/01/26 02:36:19;;;;;;;8.37;4.90;;;;;;;17.62;50.80;100874.34;5051555;28;20214;-59
2023/01/26 02:39:09;;;;;;;10.63;4.70;;;;;;;17.64;50.47;100879.66;5062176;28;20190;-59
2023/01/26 02:44:18;;;;;;;7.60;4.77;;;;;;;17.63;50.72;100876.00;5051008;28;20424;-59
2023/01/26 02:46:44;;;;;;;12.13;4.63;;;;;;;17.66;50.55;100874.44;5059570;28;21034;-58
2023/01/26 02:51:53;;;;;;;10.67;4.80;;;;;;;17.67;50.97;100871.22;5070543;28;20263;-58
2023/01/26 02:57:02;;;;;;;7.20;3.87;;;;;;;17.65;51.04;100872.78;5068592;28;20221;-59
2023/01/26 02:59:28;;;;;;;9.17;4.17;;;;;;;17.69;50.72;100870.84;5070764;28;20441;-58
2023/01/26 03:01:54;;;;;;;10.17;4.47;;;;;;;17.63;51.12;100872.31;5070843;28;20194;-59
2023/01/26 03:04:20;;;;;;;8.77;4.03;;;;;;;17.63;50.92;100873.13;5055990;28;20184;-59
2023/01/26 03:06:45;;;;;;;7.70;3.87;;;;;;;17.64;50.70;100876.81;5070692;28;20820;-58
2023/01/26 03:09:11;;;;;;;9.03;4.43;;;;;;;17.61;50.69;100866.13;5071079;28;20614;-59
2023/01/26 03:11:42;;;;;;;7.80;4.10;;;;;;;17.65;50.78;100867.88;5070361;28;20250;-58
2023/01/26 03:14:12;;;;;;;6.63;3.73;;;;;;;17.63;50.78;100869.44;5061476;28;20202;-58
2023/01/26 03:16:37;;;;;;;8.27;4.47;;;;;;;17.63;50.98;100867.44;5087714;28;20425;-58
2023/01/26 03:29:41;;;;;;;7.70;4.10;;;;;;;17.59;51.28;100857.91;5070629;28;20456;-58
2023/01/26 03:32:06;;;;;;;7.20;4.30;;;;;;;17.62;50.79;100859.22;5072446;28;20430;-58
2023/01/26 03:34:32;;;;;;;7.07;4.10;;;;;;;17.56;50.86;100860.66;5063543;28;20267;-58
2023/01/26 03:36:57;;;;;;;6.70;4.17;;;;;;;17.60;50.88;100859.56;5049798;28;20171;-58
2023/01/26 03:58:38;;;;;;;7.07;4.53;;;;;;;17.57;51.06;100846.03;5066524;28;20453;-58
2023/01/26 04:01:05;;;;;;;7.30;4.10;;;;;;;17.57;51.10;100842.34;5061119;28;20433;-59
2023/01/26 04:08:58;;;;;;;5.77;3.70;;;;;;;17.57;50.84;100837.47;5051060;28;20468;-59
2023/01/26 04:11:24;;;;;;;8.20;4.13;;;;;;;17.63;50.97;100840.88;5048488;28;20406;-58
2023/01/26 04:22:01;;;;;;;5.73;3.60;;;;;;;17.59;51.02;100828.53;5052106;28;20483;-58
2023/01/26 04:24:27;;;;;;;7.60;4.30;;;;;;;17.62;50.79;100827.81;5067671;28;20441;-59
2023/01/26 04:26:52;;;;;;;9.50;4.30;;;;;;;17.57;51.03;100822.34;5053552;28;20558;-58
2023/01/26 04:29:17;;;;;;;6.77;3.87;;;;;;;17.57;51.35;100820.34;5069517;28;20159;-58
2023/01/26 04:31:43;;;;;;;7.50;4.00;;;;;;;17.56;50.83;100830.09;5069746;28;20232;-59
2023/01/26 04:34:10;;;;;;;7.90;3.83;;;;;;;17.54;51.31;100823.06;5063893;28;20210;-58
2023/01/26 04:36:36;;;;;;;8.07;4.37;;;;;;;17.59;50.64;100820.81;5049028;28;20640;-58
2023/01/26 04:39:01;;;;;;;6.30;3.93;;;;;;;17.58;51.15;100822.00;5049418;28;20468;-58
2023/01/26 04:41:28;;;;;;;5.63;3.10;;;;;;;17.58;51.08;100818.31;5051973;28;20234;-58
2023/01/26 04:43:53;;;;;;;6.70;3.70;;;;;;;17.60;51.06;100819.59;5049409;28;20168;-59
2023/01/26 04:46:19;;;;;;;5.60;3.80;;;;;;;17.60;51.29;100819.59;5050794;28;20462;-59
2023/01/26 04:48:44;;;;;;;6.67;3.77;;;;;;;17.57;51.22;100814.63;5048955;28;20156;-58
2023/01/26 04:51:14;;;;;;;7.80;4.30;;;;;;;17.56;51.18;100801.53;5056456;28;20163;-59
2023/01/26 04:53:40;;;;;;;7.37;3.73;;;;;;;17.57;50.84;100811.78;5067243;28;20555;-58
2023/01/26 04:56:08;;;;;;;7.30;3.80;;;;;;;17.56;51.15;100817.84;5068187;28;20405;-58
2023/01/26 04:58:33;;;;;;;7.37;4.20;;;;;;;17.55;51.17;100817.00;5068670;28;20190;-58
2023/01/26 05:00:59;;;;;;;6.97;3.60;;;;;;;17.56;51.35;100810.09;5064614;28;20898;-59
2023/01/26 05:03:24;;;;;;;9.00;4.53;;;;;;;17.56;51.18;100806.44;5074261;28;20163;-58
2023/01/26 05:05:51;;;;;;;7.93;3.93;;;;;;;17.55;51.07;100805.59;5088035;28;20225;-59
2023/01/26 05:08:17;;;;;;;6.93;3.67;;;;;;;17.66;50.92;100820.19;5068299;28;20208;-59
2023/01/26 05:10:42;;;;;;;6.00;4.03;;;;;;;17.57;51.54;100802.38;5068489;28;20410;-59
2023/01/26 05:13:08;;;;;;;8.53;4.07;;;;;;;17.63;50.88;100812.34;5067814;28;20234;-59
2023/01/26 05:15:34;;;;;;;6.40;3.97;;;;;;;17.62;51.22;100808.69;5065733;28;20213;-58
2023/01/26 05:17:59;;;;;;;7.17;4.27;;;;;;;17.56;50.78;100804.38;5031993;28;20190;-58
2023/01/26 05:20:25;;;;;;;5.67;3.20;;;;;;;17.63;51.24;100806.63;5048396;28;20152;-58
2023/01/26 05:22:50;;;;;;;5.47;3.17;;;;;;;17.55;51.16;100802.72;5060736;28;20187;-59
2023/01/26 05:25:16;;;;;;;8.03;3.93;;;;;;;17.55;51.05;100805.59;5068527;28;20179;-59
2023/01/26 05:27:41;;;;;;;6.83;4.17;;;;;;;17.58;50.91;100802.03;5068095;28;20194;-59
2023/01/26 05:30:07;;;;;;;7.53;3.53;;;;;;;17.59;51.00;100794.25;5050358;28;20175;-59
2023/01/26 05:32:33;;;;;;;6.30;3.60;;;;;;;17.64;51.07;100803.41;5071693;28;20175;-58
2023/01/26 05:34:58;;;;;;;8.47;3.73;;;;;;;17.65;51.05;100805.06;5064872;28;20187;-59
2023/01/26 05:37:27;;;;;;;5.73;3.77;;;;;;;17.65;50.92;100804.25;5068915;28;20171;-58
2023/01/26 05:39:52;;;;;;;6.90;3.90;;;;;;;17.64;51.19;100799.72;5064663;28;20183;-58
2023/01/26 05:42:18;;;;;;;10.83;3.60;;;;;;;17.62;51.03;100799.25;5049280;28;20949;-58
2023/01/26 05:44:43;;;;;;;5.77;3.30;;;;;;;17.59;51.04;100795.13;5030868;28;20175;-58
2023/01/26 05:47:09;;;;;;;6.00;3.07;;;;;;;17.56;51.19;100795.81;5053058;28;20245;-58
2023/01/26 05:49:37;;;;;;;11.70;5.30;;;;;;;17.59;51.27;100797.13;5052869;28;20655;-58
2023/01/26 05:52:09;;;;;;;7.33;4.00;;;;;;;17.59;51.09;100794.25;5055276;28;20191;-58
2023/01/26 05:54:35;;;;;;;6.97;3.73;;;;;;;17.60;51.11;100793.91;5054033;28;20418;-58
2023/01/26 05:57:01;;;;;;;6.10;3.30;;;;;;;17.60;50.98;100791.06;5068925;28;20436;-58
2023/01/26 05:59:26;;;;;;;6.20;3.80;;;;;;;17.56;50.89;100795.81;5071822;28;20170;-59
2023/01/26 06:01:51;;;;;;;6.67;4.17;;;;;;;17.59;50.86;100789.41;5058770;28;20187;-58
2023/01/26 06:04:17;;;;;;;5.23;3.20;;;;;;;17.62;51.23;100793.56;5076887;28;20174;-58
2023/01/26 06:06:42;;;;;;;5.30;3.30;;;;;;;17.60;51.17;100788.19;5091301;28;20179;-58
2023/01/26 06:09:08;;;;;;;6.40;4.10;;;;;;;17.56;50.76;100790.13;5091559;28;20163;-58
2023/01/26 06:11:33;;;;;;;6.20;3.40;;;;;;;17.57;51.26;100790.97;5056222;28;20201;-58
2023/01/26 06:13:59;;;;;;;5.70;3.70;;;;;;;17.57;51.19;100790.97;5052114;28;20261;-58
2023/01/26 06:16:24;;;;;;;6.33;3.73;;;;;;;17.60;51.12;100788.19;5051834;28;20172;-59
2023/01/26 06:18:49;;;;;;;7.27;3.53;;;;;;;17.64;51.09;100791.16;5051927;28;20798;-58
2023/01/26 06:21:15;;;;;;;7.00;3.90;;;;;;;17.62;51.14;100794.41;5074463;28;20175;-58
2023/01/26 06:23:41;;;;;;;5.97;3.90;;;;;;;17.66;51.10;100795.31;5071484;28;20201;-58
2023/01/26 06:26:06;;;;;;;7.57;4.53;;;;;;;17.66;51.04;100801.03;5056875;28;20555;-58
2023/01/26 06:28:31;;;;;;;5.40;3.40;;;;;;;17.64;50.96;100803.41;5052324;28;20651;-58
2023/01/26 06:31:01;;;;;;;5.40;3.40;;;;;;;17.63;51.04;100806.63;5054962;28;20646;-58
2023/01/26 06:33:26;;;;;;;5.87;3.30;;;;;;;17.59;50.92;100806.53;5071477;28;20229;-59
2023/01/26 06:35:53;;;;;;;6.40;3.80;;;;;;;17.61;51.02;100804.13;5070664;28;20826;-58
2023/01/26 06:38:19;;;;;;;5.53;3.50;;;;;;;17.68;50.95;100792.09;5070828;28;20238;-58
2023/01/26 06:40:44;;;;;;;6.93;3.40;;;;;;;17.60;50.99;100802.47;5061606;28;20960;-58
2023/01/26 06:43:09;;;;;;;6.40;3.83;;;;;;;17.62;50.99;100802.97;5050617;28;20625;-59
2023/01/26 06:45:35;;;;;;;9.20;4.30;;;;;;;17.71;51.03;100803.63;5051793;28;20727;-58
2023/01/26 06:48:00;;;;;;;4.77;3.40;;;;;;;17.69;50.74;100800.31;5050274;28;20184;-58
2023/01/26 06:50:29;;;;;;;5.40;3.20;;;;;;;17.65;50.98;100796.50;5051367;28;20171;-59
2023/01/26 06:52:55;;;;;;;6.13;3.53;;;;;;;17.64;50.97;100797.72;5033560;28;20190;-58
2023/01/26 06:55:22;;;;;;;7.30;3.90;;;;;;;17.64;50.80;100808.28;5052389;28;20409;-59
2023/01/26 06:57:48;;;;;;;7.03;3.63;;;;;;;17.65;51.20;100802.22;5048161;28;20198;-58
2023/01/26 07:00:14;;;;;;;5.63;2.87;;;;;;;17.63;50.89;100804.63;5068413;28;20797;-58
2023/01/26 07:02:39;;;;;;;6.40;4.20;;;;;;;17.66;50.78;100803.88;5050186;28;20178;-58
2023/01/26 07:05:05;;;;;;;5.30;3.80;;;;;;;17.64;50.98;100803.41;5067053;28;20203;-58
2023/01/26 07:07:30;;;;;;;5.70;3.37;;;;;;;17.63;51.08;100807.47;5068665;28;20181;-58
2023/01/26 07:09:56;;;;;;;5.70;3.30;;;;;;;17.69;51.08;100799.47;5070225;28;20187;-59
2023/01/26 07:12:21;;;;;;;7.40;3.63;;;;;;;17.65;51.01;100809.97;5069339;28;20215;-58
2023/01/26 07:14:47;;;;;;;6.63;3.53;;;;;;;17.64;51.08;100800.56;5070396;28;20182;-58
2023/01/26 07:17:12;;;;;;;4.93;3.50;;;;;;;17.64;51.18;100800.56;5069936;28;20666;-58
2023/01/26 07:19:37;;;;;;;5.03;3.47;;;;;;;17.63;50.96;100807.47;5073038;28;20178;-58
2023/01/26 07:22:03;;;;;;;6.23;3.37;;;;;;;17.65;50.80;100810.78;5070121;28;20178;-58
2023/01/26 07:24:28;;;;;;;6.60;4.00;;;;;;;17.64;51.16;100808.28;5035612;28;20171;-58
2023/01/26 07:26:54;;;;;;;5.40;3.20;;;;;;;17.66;51.03;100812.44;5048891;28;20199;-58
2023/01/26 07:29:20;;;;;;;5.10;3.47;;;;;;;17.64;51.06;100806.28;5070215;28;20172;-58
2023/01/26 07:31:45;;;;;;;6.37;3.97;;;;;;;17.70;51.26;100813.38;5068397;28;20179;-58
2023/01/26 07:34:11;;;;;;;6.03;3.80;;;;;;;17.67;51.02;100819.00;5069764;28;20178;-58
2023/01/26 07:36:36;;;;;;;8.70;3.17;;;;;;;17.66;50.88;100818.16;5068914;28;20174;-58
2023/01/26 07:39:02;;;;;;;5.87;3.37;;;;;;;17.62;51.17;100810.69;5070392;28;20190;-58
2023/01/26 07:41:27;;;;;;;5.90;3.80;;;;;;;17.65;51.22;100815.69;5074212;28;20185;-58
2023/01/26 07:43:52;;;;;;;6.60;3.60;;;;;;;17.63;51.50;100816.03;5070608;28;20183;-58
2023/01/26 07:46:18;;;;;;;6.97;3.97;;;;;;;17.60;51.38;100816.75;5069623;28;20203;-58
2023/01/26 07:48:43;;;;;;;5.33;3.50;;;;;;;17.62;51.19;100816.41;5070242;28;20174;-58
2023/01/26 07:51:09;;;;;;;7.37;3.53;;;;;;;17.67;50.99;100814.13;5070665;28;20178;-59
2023/01/26 07:53:38;;;;;;;10.17;7.17;;;;;;;17.44;47.04;100815.00;5069466;28;20197;-58
2023/01/26 07:56:07;;;;;;;22.20;14.33;;;;;;;16.81;46.33;100821.50;5045484;28;20982;-58
2023/01/26 07:58:34;;;;;;;29.90;19.73;;;;;;;16.56;47.31;100820.66;5064216;28;20436;-58
2023/01/26 08:01:07;;;;;;;30.80;20.57;;;;;;;17.11;46.39;100812.31;5065102;28;20966;-58
2023/01/26 08:03:33;;;;;;;30.40;19.13;;;;;;;17.54;44.88;100818.19;5064910;28;20461;-58
2023/01/26 08:05:58;;;;;;;30.63;18.30;;;;;;;17.89;43.08;100813.53;5064858;28;20822;-58
2023/01/26 08:08:24;;;;;;;25.37;16.47;;;;;;;18.21;43.37;100823.84;5065187;28;20182;-59
2023/01/26 08:10:49;;;;;;;22.93;14.40;;;;;;;18.53;41.81;100814.16;5033096;28;20183;-59
2023/01/26 08:13:15;;;;;;;25.00;15.17;;;;;;;18.93;42.00;100816.78;5030807;28;20233;-58
2023/01/26 08:15:40;;;;;;;20.17;13.30;;;;;;;18.85;42.23;100820.66;5016021;28;20189;-58
2023/01/26 08:18:06;;;;;;;20.53;13.40;;;;;;;18.56;43.51;100824.00;5028755;28;20187;-59
2023/01/26 08:20:31;;;;;;;18.00;11.73;;;;;;;18.98;43.41;100819.38;5031050;28;20602;-58
2023/01/26 08:22:56;;;;;;;20.83;12.03;;;;;;;18.95;43.45;100826.66;5026084;28;20187;-59
2023/01/26 08:25:22;;;;;;;18.10;11.63;;;;;;;18.94;43.44;100822.16;5027723;28;20655;-59
2023/01/26 08:27:47;;;;;;;19.63;11.83;;;;;;;19.03;43.47;100828.50;5025945;28;20192;-58
2023/01/26 08:30:14;;;;;;;15.57;10.10;;;;;;;18.78;44.13;100832.78;5029861;28;20161;-58
2023/01/26 08:32:40;;;;;;;18.90;11.97;;;;;;;18.81;45.30;100826.28;5029417;28;20654;-58
2023/01/26 08:35:06;;;;;;;20.20;11.30;;;;;;;18.85;46.07;100832.94;5025444;28;20435;-58
2023/01/26 08:37:32;;;;;;;20.93;12.77;;;;;;;18.90;52.64;100835.53;5027124;28;20542;-59
2023/01/26 08:39:57;;;;;;;18.27;10.70;;;;;;;18.80;50.65;100838.09;5021515;28;20204;-58
2023/01/26 08:42:24;;;;;;;14.80;9.93;;;;;;;18.64;48.71;100840.13;5009828;28;20443;-58
2023/01/26 08:44:49;;;;;;;16.43;10.37;;;;;;;18.55;47.71;100846.03;5022453;28;20215;-58
2023/01/26 08:47:15;;;;;;;14.77;8.97;;;;;;;18.47;47.94;100838.47;5025661;28;20982;-59
2023/01/26 08:49:40;;;;;;;13.40;8.80;;;;;;;18.49;49.21;100838.94;5009818;28;20232;-59
2023/01/26 08:52:06;;;;;;;15.70;8.40;;;;;;;18.38;48.91;100839.84;5028293;28;20180;-58
2023/01/26 08:54:31;;;;;;;16.27;8.97;;;;;;;18.42;47.85;100835.88;5025916;28;20533;-59
2023/01/26 08:56:56;;;;;;;18.20;9.67;;;;;;;18.40;48.33;100837.44;5028496;28;20626;-58
2023/01/26 08:59:22;;;;;;;13.33;8.00;;;;;;;18.35;48.21;100835.69;5028958;28;20263;-59
2023/01/26 09:01:48;;;;;;;17.30;9.43;;;;;;;18.27;47.56;100839.50;5022696;28;20235;-58
2023/01/26 09:04:14;;;;;;;14.93;8.93;;;;;;;18.16;47.31;100838.38;5026419;28;20252;-58
2023/01/26 09:06:39;;;;;;;19.87;9.30;;;;;;;18.19;46.78;100836.81;5028806;28;20447;-58
2023/01/26 09:09:05;;;;;;;18.20;9.87;;;;;;;18.19;47.03;100839.69;5026108;28;20192;-58
2023/01/26 09:11:30;;;;;;;19.73;9.03;;;;;;;18.14;46.78;100832.22;5025361;28;20230;-58
2023/01/26 09:13:56;;;;;;;20.03;9.60;;;;;;;18.10;47.11;100834.13;5067151;28;20227;-58
2023/01/26 09:16:21;;;;;;;16.93;9.40;;;;;;;17.99;47.12;100838.72;5054321;28;20184;-58
2023/01/26 09:18:53;;;;;;;14.80;8.93;;;;;;;18.06;47.67;100838.91;5055132;28;20186;-58
2023/01/26 09:21:18;;;;;;;15.17;8.10;;;;;;;18.08;46.82;100841.41;5062472;28;20937;-58
2023/01/26 09:23:44;;;;;;;12.50;8.53;;;;;;;18.03;47.31;100845.38;5051295;28;20440;-58
2023/01/26 09:26:09;;;;;;;18.00;8.00;;;;;;;18.00;47.10;100837.53;5053527;28;20210;-58
2023/01/26 09:28:35;;;;;;;14.13;8.40;;;;;;;17.91;47.12;100841.75;5069749;28;20179;-58
2023/01/26 09:31:08;;;;;;;12.77;7.43;;;;;;;17.93;47.25;100854.47;5072799;28;20172;-58
2023/01/26 09:33:34;;;;;;;12.80;7.77;;;;;;;17.95;46.90;100848.38;5065954;28;20201;-60
2023/01/26 09:36:07;;;;;;;15.07;8.00;;;;;;;17.94;47.82;100853.28;5070818;28;21251;-59
2023/01/26 09:38:32;;;;;;;16.90;7.73;;;;;;;17.96;49.29;100850.06;5046882;28;20193;-58
2023/01/26 09:40:58;;;;;;;19.50;8.10;;;;;;;17.92;49.78;100846.25;5067511;28;20433;-58
2023/01/26 09:43:46;;;;;;;21.37;8.80;;;;;;;17.92;50.40;100849.97;5072766;28;20649;-58
2023/01/26 09:46:21;;;;;;;21.63;7.60;;;;;;;17.87;50.77;100853.06;5078529;28;20325;-58
2023/01/26 09:48:54;;;;;;;12.67;7.00;;;;;;;17.92;50.04;100849.13;5073120;28;20411;-59
2023/01/26 09:51:27;;;;;;;14.90;7.73;;;;;;;17.94;50.38;100847.56;5055847;28;20431;-59
2023/01/26 09:53:58;;;;;;;15.63;7.73;;;;;;;17.91;50.22;100848.28;5052117;28;20942;-58
2023/01/26 09:56:27;;;;;;;32.03;8.93;;;;;;;17.98;50.29;100844.81;5042237;28;20453;-59
2023/01/26 09:59:06;;;;;;;24.13;6.93;;;;;;;17.99;49.95;100843.59;5052098;28;20452;-58
2023/01/26 10:01:49;;;;;;;15.17;7.87;;;;;;;18.01;49.86;100842.03;5062267;28;20521;-58
2023/01/26 10:04:35;;;;;;;18.87;7.27;;;;;;;18.01;49.91;100846.94;5084974;28;20419;-58
2023/01/26 10:07:07;;;;;;;16.13;7.30;;;;;;;17.96;50.07;100839.44;5092190;28;20460;-59
2023/01/26 10:09:34;;;;;;;14.10;7.70;;;;;;;17.93;50.13;100833.63;5074401;28;20415;-59
2023/01/26 10:12:03;;;;;;;17.90;8.17;;;;;;;17.95;50.25;100851.22;5047491;28;20819;-59
2023/01/26 10:14:29;;;;;;;18.13;7.27;;;;;;;17.96;49.68;100850.06;5052159;28;20414;-59
2023/01/26 10:16:54;;;;;;;10.67;6.57;;;;;;;17.87;50.45;100846.53;5053517;28;20430;-58
2023/01/26 10:19:35;;;;;;;14.97;7.30;;;;;;;17.88;50.70;100848.19;5068934;28;20618;-59
2023/01/26 10:22:10;;;;;;;12.60;6.77;;;;;;;17.98;50.13;100853.38;5054192;28;20521;-58
2023/01/26 10:24:35;;;;;;;13.40;6.53;;;;;;;17.95;50.52;100854.94;5071715;28;20454;-59
2023/01/26 10:27:01;;;;;;;11.60;6.50;;;;;;;17.87;50.57;100847.38;5071617;28;20461;-59
2023/01/26 10:29:26;;;;;;;12.03;7.13;;;;;;;17.88;50.60;100846.16;5054610;28;20195;-58
2023/01/26 10:31:51;;;;;;;17.07;7.33;;;;;;;17.91;50.59;100850.31;5051718;28;20237;-59
2023/01/26 10:34:22;;;;;;;14.30;6.80;;;;;;;17.87;50.48;100847.38;5054131;28;20195;-59
2023/01/26 10:36:47;;;;;;;16.27;7.20;;;;;;;17.83;50.83;100837.84;5035957;28;20183;-59
2023/01/26 10:39:15;;;;;;;9.90;6.47;;;;;;;17.83;50.71;100840.72;5051203;28;20819;-58
2023/01/26 10:41:40;;;;;;;12.70;6.67;;;;;;;17.87;50.42;100835.09;5033728;28;20172;-58
2023/01/26 10:44:08;;;;;;;10.83;6.10;;;;;;;17.86;50.65;100822.81;5026097;28;20438;-59
2023/01/26 10:46:38;;;;;;;12.47;5.70;;;;;;;17.81;51.11;100820.22;5050804;28;20245;-58
2023/01/26 10:49:07;;;;;;;9.63;6.00;;;;;;;17.87;50.73;100821.66;5051379;28;20807;-58
2023/01/26 10:51:33;;;;;;;13.07;6.30;;;;;;;17.86;50.73;100808.53;5065191;28;20467;-58
2023/01/26 10:54:21;;;;;;;16.63;6.93;;;;;;;17.90;50.44;100814.38;5084099;28;20420;-58
2023/01/26 10:56:54;;;;;;;10.00;5.80;;;;;;;17.89;50.89;100816.41;5077670;28;20417;-59
2023/01/26 10:59:52;;;;;;;15.63;6.77;;;;;;;17.87;50.65;100820.81;5054832;28;20461;-58
2023/01/26 11:02:28;;;;;;;13.67;6.43;;;;;;;17.90;50.78;100812.34;5053513;28;20414;-58
2023/01/26 11:05:02;;;;;;;12.20;6.40;;;;;;;17.84;50.71;100813.81;5085595;28;20432;-58
2023/01/26 11:07:40;;;;;;;10.80;5.70;;;;;;;17.83;50.54;100803.59;5053670;28;20472;-59
2023/01/26 11:10:29;;;;;;;13.80;6.53;;;;;;;17.84;50.66;100813.81;5050965;28;20472;-59
2023/01/26 11:13:07;;;;;;;9.20;5.93;;;;;;;17.85;50.84;100804.03;5069940;28;20978;-59
2023/01/26 11:15:38;;;;;;;13.80;6.83;;;;;;;17.81;51.02;100805.13;5052293;28;20946;-58
2023/01/26 11:18:32;;;;;;;8.43;5.70;;;;;;;17.81;50.69;100808.81;5070958;28;20424;-59
2023/01/26 11:21:22;;;;;;;10.73;6.40;;;;;;;17.90;50.70;100812.34;5060392;28;20450;-58
2023/01/26 11:23:59;;;;;;;11.90;5.47;;;;;;;17.88;50.67;100806.19;5067801;28;20457;-58
2023/01/26 11:26:25;;;;;;;10.30;5.63;;;;;;;17.82;51.04;100807.63;5070525;28;20896;-59
2023/01/26 11:29:00;;;;;;;9.13;5.63;;;;;;;17.82;50.66;100799.06;5069423;28;20417;-58
2023/01/26 11:31:41;;;;;;;10.40;5.60;;;;;;;17.85;50.93;100804.03;5063467;28;20593;-58
2023/01/26 11:34:15;;;;;;;10.93;5.53;;;;;;;17.86;50.86;100799.97;5032409;28;20497;-59
2023/01/26 11:36:59;;;;;;;11.20;5.83;;;;;;;17.84;50.99;100796.66;5050073;28;20414;-58
2023/01/26 11:39:54;;;;;;;11.20;5.70;;;;;;;17.83;50.68;100791.31;5052238;28;20445;-58
2023/01/26 11:42:37;;;;;;;12.80;6.17;;;;;;;17.80;50.69;100795.72;5072281;28;20426;-58
2023/01/26 11:45:19;;;;;;;13.57;5.80;;;;;;;17.83;50.88;100792.16;5046103;28;20441;-59
2023/01/26 11:48:11;;;;;;;9.30;5.37;;;;;;;17.79;51.08;100782.66;5032296;28;20423;-59
2023/01/26 11:50:56;;;;;;;10.10;5.17;;;;;;;17.83;50.80;100785.59;5032520;28;20912;-58
2023/01/26 11:53:41;;;;;;;9.80;5.50;;;;;;;17.84;50.78;100781.53;5057745;28;20474;-59
2023/01/26 11:56:23;;;;;;;13.33;5.97;;;;;;;17.83;51.24;100777.88;5068633;28;20416;-58
2023/01/26 11:58:52;;;;;;;10.67;5.97;;;;;;;17.84;50.69;100773.81;5047197;28;20499;-59
2023/01/26 12:01:37;;;;;;;13.90;6.10;;;;;;;17.83;50.99;100771.31;5069841;28;20442;-59
2023/01/26 12:04:02;;;;;;;9.57;6.03;;;;;;;17.85;50.59;100771.81;5049124;28;20426;-59
2023/01/26 12:06:27;;;;;;;12.87;7.10;;;;;;;17.83;50.92;100766.44;5048194;28;20486;-59
2023/01/26 12:08:59;;;;;;;11.20;6.57;;;;;;;17.83;51.04;100766.44;5049335;28;20233;-58
2023/01/26 12:11:27;;;;;;;9.60;5.90;;;;;;;17.82;51.23;100763.97;5053783;28;20190;-59
2023/01/26 12:13:55;;;;;;;8.20;5.57;;;;;;;17.78;51.25;100757.31;5049357;28;20963;-59
2023/01/26 12:16:35;;;;;;;9.17;5.80;;;;;;;17.83;51.01;100754.19;5049000;28;20402;-58